Time;durP1;ratioP1;P1;durP2;ratioP2;P2;SDS_P1;SDS_P2;PMS_P1;PMS_P2;Temp;Humidity;BMP_temperature;BMP_pressure;BME280_temperature;BME280_humidity;BME280_pressure;Samples;Min_cycle;Max_cycle;Signal;HPM_P1;HPM_P2
2022/01/01 00:00:03;;;;;;;7.17;6.60;;;;;19.20;101164.00;;;;2088953;28;20205;-53
2022/01/01 00:01:03;;;;;;;6.45;5.80;;;;;19.20;101159.00;;;;2085760;28;20244;-54
2022/01/01 00:02:03;;;;;;;7.10;6.50;;;;;19.20;101162.00;;;;2089664;28;20227;-54
2022/01/01 00:03:04;;;;;;;6.73;6.13;;;;;19.20;101162.00;;;;2088892;28;20212;-54
2022/01/01 00:04:04;;;;;;;6.73;6.20;;;;;19.20;101165.00;;;;2089710;28;20205;-54
2022/01/01 00:05:05;;;;;;;7.07;6.37;;;;;19.20;101159.00;;;;2089562;28;20209;-53
2022/01/01 00:06:06;;;;;;;6.97;6.38;;;;;19.20;101165.00;;;;2088769;28;20204;-54
2022/01/01 00:07:06;;;;;;;6.30;5.80;;;;;19.20;101174.00;;;;2088959;28;20232;-54
2022/01/01 00:08:08;;;;;;;6.63;6.03;;;;;19.20;101173.00;;;;2089475;28;20231;-54
2022/01/01 00:09:08;;;;;;;6.25;5.68;;;;;19.10;101181.00;;;;2089634;28;20219;-54
2022/01/01 00:10:09;;;;;;;6.80;6.23;;;;;19.10;101176.00;;;;2089654;28;20208;-54
2022/01/01 00:11:09;;;;;;;5.87;5.37;;;;;19.10;101178.00;;;;2089117;28;20205;-54
2022/01/01 00:12:10;;;;;;;6.70;6.10;;;;;19.10;101187.00;;;;2089540;28;20200;-54
2022/01/01 00:13:10;;;;;;;6.20;5.70;;;;;19.20;101193.00;;;;2089510;28;20205;-55
2022/01/01 00:14:11;;;;;;;7.27;6.57;;;;;19.20;101194.00;;;;2089453;28;20456;-54
2022/01/01 00:15:11;;;;;;;6.70;6.10;;;;;19.20;101190.00;;;;2089618;28;20239;-55
2022/01/01 00:16:11;;;;;;;7.00;6.30;;;;;19.20;101194.00;;;;2089489;28;20220;-54
2022/01/01 00:17:12;;;;;;;7.17;6.07;;;;;19.10;101188.00;;;;2089576;28;20219;-55
2022/01/01 00:18:12;;;;;;;6.67;6.07;;;;;19.10;101190.00;;;;2088995;28;20266;-54
2022/01/01 00:19:12;;;;;;;7.47;6.70;;;;;19.10;101198.00;;;;2089440;28;20232;-54
2022/01/01 00:20:13;;;;;;;6.60;6.00;;;;;19.10;101191.00;;;;2089406;28;20718;-54
2022/01/01 00:21:13;;;;;;;6.90;6.30;;;;;19.10;101190.00;;;;2089185;28;20672;-54
2022/01/01 00:22:13;;;;;;;7.03;6.33;;;;;19.10;101192.00;;;;2089549;28;20237;-54
2022/01/01 00:23:14;;;;;;;6.90;6.37;;;;;19.10;101189.00;;;;2089481;28;20205;-54
2022/01/01 00:24:14;;;;;;;6.07;5.57;;;;;19.10;101194.00;;;;2089586;28;20264;-54
2022/01/01 00:25:14;;;;;;;6.90;6.30;;;;;19.20;101193.00;;;;2089486;28;20354;-54
2022/01/01 00:26:15;;;;;;;7.13;6.53;;;;;19.20;101197.00;;;;2089268;28;20212;-54
2022/01/01 00:27:15;;;;;;;6.90;6.30;;;;;19.20;101197.00;;;;2089391;28;20205;-53
2022/01/01 00:28:15;;;;;;;6.40;5.80;;;;;19.20;101199.00;;;;2088846;28;20228;-54
2022/01/01 00:29:16;;;;;;;6.70;6.10;;;;;19.20;101197.00;;;;2089102;28;20216;-54
2022/01/01 00:30:16;;;;;;;6.17;5.67;;;;;19.20;101194.00;;;;2077766;28;20611;-54
2022/01/01 00:31:16;;;;;;;6.37;5.77;;;;;19.20;101205.00;;;;2083521;28;20701;-54
2022/01/01 00:32:17;;;;;;;6.00;5.50;;;;;19.20;101198.00;;;;2092206;28;20602;-54
2022/01/01 00:33:17;;;;;;;6.60;6.10;;;;;19.20;101199.00;;;;2089339;28;20212;-54
2022/01/01 00:34:17;;;;;;;7.07;6.47;;;;;19.10;101192.00;;;;2086738;28;20228;-54
2022/01/01 00:35:18;;;;;;;6.80;6.20;;;;;19.20;101197.00;;;;2089276;28;20266;-54
2022/01/01 00:36:18;;;;;;;7.20;6.50;;;;;19.20;101199.00;;;;2089307;28;20201;-54
2022/01/01 00:37:19;;;;;;;6.87;6.27;;;;;19.20;101198.00;;;;2089453;28;20270;-54
2022/01/01 00:38:19;;;;;;;6.43;5.83;;;;;19.20;101201.00;;;;2089408;28;20217;-54
2022/01/01 00:39:19;;;;;;;6.63;6.03;;;;;19.20;101187.00;;;;2089459;28;20351;-54
2022/01/01 00:40:20;;;;;;;6.23;5.67;;;;;19.20;101187.00;;;;2087396;28;20213;-54
2022/01/01 00:41:20;;;;;;;5.90;5.40;;;;;19.10;101194.00;;;;2089157;28;20216;-54
2022/01/01 00:42:21;;;;;;;6.80;6.20;;;;;19.10;101187.00;;;;2089404;28;20613;-54
2022/01/01 00:43:22;;;;;;;6.90;6.30;;;;;19.20;101187.00;;;;2089383;28;20216;-54
2022/01/01 00:44:22;;;;;;;6.27;5.67;;;;;19.20;101186.00;;;;2089459;28;20221;-54
2022/01/01 00:45:23;;;;;;;6.80;6.20;;;;;19.10;101188.00;;;;2088607;28;20219;-54
2022/01/01 00:46:23;;;;;;;6.90;6.30;;;;;19.10;101190.00;;;;2089284;28;20209;-54
2022/01/01 00:47:24;;;;;;;6.10;5.60;;;;;19.20;101197.00;;;;2089259;28;20209;-54
2022/01/01 00:48:24;;;;;;;6.47;5.87;;;;;19.10;101189.00;;;;2089344;28;20220;-54
2022/01/01 00:49:24;;;;;;;6.83;6.23;;;;;19.20;101195.00;;;;2089338;28;20209;-54
2022/01/01 00:50:25;;;;;;;7.03;6.53;;;;;19.20;101191.00;;;;2088976;28;20261;-54
2022/01/01 00:51:25;;;;;;;6.17;5.67;;;;;19.20;101191.00;;;;2089070;28;20212;-54
2022/01/01 00:52:25;;;;;;;5.60;5.10;;;;;19.20;101184.00;;;;2088356;28;20215;-53
2022/01/01 00:53:26;;;;;;;6.77;6.23;;;;;19.20;101195.00;;;;2089080;28;20217;-54
2022/01/01 00:54:26;;;;;;;6.50;5.93;;;;;19.20;101192.00;;;;2088995;28;20213;-53
2022/01/01 00:55:26;;;;;;;6.20;5.67;;;;;19.20;101192.00;;;;2089014;28;20216;-54
2022/01/01 00:56:27;;;;;;;5.87;5.37;;;;;19.20;101197.00;;;;2088544;28;20265;-54
2022/01/01 00:57:27;;;;;;;6.23;5.63;;;;;19.10;101194.00;;;;2088695;28;20633;-54
2022/01/01 00:58:27;;;;;;;5.80;5.30;;;;;19.20;101204.00;;;;2088905;28;20619;-55
2022/01/01 00:59:29;;;;;;;6.60;6.00;;;;;19.10;101207.00;;;;2087877;28;20223;-55
2022/01/01 01:00:29;;;;;;;6.75;6.15;;;;;19.10;101209.00;;;;2087775;28;20212;-54
2022/01/01 01:01:29;;;;;;;6.70;6.10;;;;;19.20;101206.00;;;;2088912;28;20288;-54
2022/01/01 01:02:31;;;;;;;6.53;5.93;;;;;19.10;101205.00;;;;2088723;28;20205;-54
2022/01/01 01:03:31;;;;;;;6.78;6.18;;;;;19.20;101211.00;;;;2088579;28;20220;-55
2022/01/01 01:04:32;;;;;;;6.70;6.10;;;;;19.20;101217.00;;;;2088549;28;20684;-54
2022/01/01 01:05:32;;;;;;;6.07;5.57;;;;;19.20;101217.00;;;;2088683;28;20462;-54
2022/01/01 01:06:32;;;;;;;5.90;5.40;;;;;19.20;101215.00;;;;2089173;28;20282;-54
2022/01/01 01:07:33;;;;;;;5.97;5.47;;;;;19.20;101214.00;;;;2089003;28;20217;-54
2022/01/01 01:08:33;;;;;;;6.43;5.83;;;;;19.20;101201.00;;;;2088989;28;20256;-54
2022/01/01 01:09:33;;;;;;;6.70;6.10;;;;;19.10;101205.00;;;;2089106;28;20217;-54
2022/01/01 01:10:34;;;;;;;6.57;6.07;;;;;19.10;101197.00;;;;2088849;28;20227;-54
2022/01/01 01:11:41;;;;;;;6.47;5.90;;;;;19.10;101204.00;;;;2089105;28;20212;-54
2022/01/01 01:12:45;;;;;;;6.40;5.90;;;;;19.10;101210.00;;;;2085050;28;20241;-54
2022/01/01 01:13:55;;;;;;;6.38;5.78;;;;;19.10;101204.00;;;;2089067;28;20224;-55
2022/01/01 01:14:55;;;;;;;6.50;6.00;;;;;19.10;101202.00;;;;2085161;28;20240;-54
2022/01/01 01:15:56;;;;;;;6.03;5.53;;;;;19.20;101217.00;;;;2088938;28;20228;-54
2022/01/01 01:16:56;;;;;;;6.03;5.53;;;;;19.20;101206.00;;;;2088982;28;20205;-54
2022/01/01 01:17:59;;;;;;;6.03;5.53;;;;;19.20;101218.00;;;;2089106;28;20682;-54
2022/01/01 01:19:00;;;;;;;5.45;5.03;;;;;19.20;101213.00;;;;2085566;28;20240;-54
2022/01/01 01:20:00;;;;;;;6.30;5.80;;;;;19.10;101218.00;;;;2089025;28;20225;-54
2022/01/01 01:21:00;;;;;;;5.30;4.90;;;;;19.20;101211.00;;;;2077846;28;20269;-54
2022/01/01 01:22:01;;;;;;;6.60;6.00;;;;;19.20;101224.00;;;;2086923;28;20225;-54
2022/01/01 01:23:01;;;;;;;6.23;5.73;;;;;19.10;101214.00;;;;2087493;28;20235;-54
2022/01/01 01:24:02;;;;;;;5.70;5.27;;;;;19.20;101212.00;;;;2085049;28;20212;-54
2022/01/01 01:25:02;;;;;;;5.57;5.07;;;;;19.20;101215.00;;;;2095991;28;20270;-54
2022/01/01 01:26:07;;;;;;;6.60;6.10;;;;;19.20;101219.00;;;;2089581;28;20220;-54
2022/01/01 01:27:08;;;;;;;5.85;5.35;;;;;19.10;101219.00;;;;2085693;28;20213;-54
2022/01/01 01:28:09;;;;;;;6.63;6.03;;;;;19.10;101214.00;;;;2088715;28;20204;-54
2022/01/01 01:29:09;;;;;;;6.50;5.90;;;;;19.10;101215.00;;;;2088927;28;20236;-54
2022/01/01 01:30:12;;;;;;;6.67;6.07;;;;;19.10;101208.00;;;;2088890;28;20465;-54
2022/01/01 01:31:15;;;;;;;6.32;5.72;;;;;19.10;101218.00;;;;2088439;28;20209;-56
2022/01/01 01:32:15;;;;;;;5.93;5.40;;;;;19.10;101220.00;;;;2088805;28;20223;-54
2022/01/01 01:33:16;;;;;;;5.83;5.33;;;;;19.20;101208.00;;;;2088907;28;20696;-54
2022/01/01 01:34:16;;;;;;;6.33;5.83;;;;;19.10;101221.00;;;;2088075;28;20699;-54
2022/01/01 01:35:16;;;;;;;6.00;5.50;;;;;19.10;101213.00;;;;2088989;28;20209;-54
2022/01/01 01:36:17;;;;;;;6.30;5.27;;;;;19.10;101209.00;;;;2088455;28;20228;-54
2022/01/01 01:37:17;;;;;;;6.80;6.20;;;;;19.10;101224.00;;;;2088861;28;20721;-54
2022/01/01 01:38:17;;;;;;;6.23;5.73;;;;;19.10;101221.00;;;;2088262;28;20221;-54
2022/01/01 01:39:18;;;;;;;5.97;5.47;;;;;19.20;101219.00;;;;2088889;28;20247;-54
2022/01/01 01:40:18;;;;;;;6.37;5.87;;;;;19.20;101213.00;;;;2088623;28;20205;-54
2022/01/01 01:41:18;;;;;;;6.10;5.50;;;;;19.20;101218.00;;;;2087610;28;20290;-54
2022/01/01 01:42:19;;;;;;;5.80;5.30;;;;;19.10;101216.00;;;;2088738;28;20212;-54
2022/01/01 01:43:19;;;;;;;7.30;6.40;;;;;19.10;101214.00;;;;2088770;28;20270;-54
2022/01/01 01:44:32;;;;;;;6.30;5.80;;;;;19.20;101214.00;;;;2088292;28;20243;-54
2022/01/01 01:45:32;;;;;;;6.13;5.60;;;;;19.10;101219.00;;;;2088244;28;20605;-54
2022/01/01 01:46:32;;;;;;;5.93;5.43;;;;;19.10;101215.00;;;;2088231;28;20221;-54
2022/01/01 01:47:36;;;;;;;6.30;5.70;;;;;19.20;101215.00;;;;2087227;28;21091;-54
2022/01/01 01:48:37;;;;;;;5.60;5.10;;;;;19.10;101210.00;;;;2088747;28;20228;-54
2022/01/01 01:49:38;;;;;;;6.05;5.55;;;;;19.10;101199.00;;;;2088782;28;20248;-54
2022/01/01 01:50:38;;;;;;;6.23;5.70;;;;;19.10;101214.00;;;;2088461;28;20707;-54
2022/01/01 01:51:38;;;;;;;6.10;5.50;;;;;19.10;101204.00;;;;2087634;28;20683;-54
2022/01/01 01:52:39;;;;;;;5.60;5.10;;;;;19.10;101200.00;;;;2088581;28;20580;-54
2022/01/01 01:53:40;;;;;;;5.80;5.30;;;;;19.10;101203.00;;;;2085006;28;20212;-54
2022/01/01 01:54:40;;;;;;;5.30;4.90;;;;;19.20;101218.00;;;;2088062;28;20707;-54
2022/01/01 01:55:41;;;;;;;6.00;5.50;;;;;19.10;101211.00;;;;2088089;28;20737;-54
2022/01/01 01:56:41;;;;;;;6.00;5.50;;;;;19.20;101201.00;;;;2086842;28;20307;-54
2022/01/01 01:57:42;;;;;;;5.60;5.10;;;;;19.10;101219.00;;;;2087885;28;20213;-54
2022/01/01 01:58:42;;;;;;;5.53;5.10;;;;;19.10;101197.00;;;;2087452;28;20617;-54
2022/01/01 01:59:43;;;;;;;6.40;5.80;;;;;19.10;101211.00;;;;2087939;28;20212;-54
2022/01/01 02:01:46;;;;;;;6.07;5.57;;;;;19.10;101206.00;;;;2074140;28;20235;-57
2022/01/01 02:02:47;;;;;;;5.43;4.97;;;;;19.10;101222.00;;;;2087992;28;20213;-54
2022/01/01 02:03:47;;;;;;;5.13;4.73;;;;;19.10;101221.00;;;;2088608;28;20267;-55
2022/01/01 02:04:50;;;;;;;5.77;5.27;;;;;19.10;101228.00;;;;2088640;28;20209;-55
2022/01/01 02:05:50;;;;;;;5.70;5.20;;;;;19.10;101221.00;;;;2085092;28;20205;-55
2022/01/01 02:06:51;;;;;;;5.40;4.97;;;;;19.20;101224.00;;;;2079641;28;20201;-54
2022/01/01 02:07:51;;;;;;;5.87;5.37;;;;;19.20;101232.00;;;;2079724;28;20354;-54
2022/01/01 02:08:52;;;;;;;5.90;5.40;;;;;19.10;101231.00;;;;2087858;28;20213;-53
2022/01/01 02:09:52;;;;;;;5.47;5.00;;;;;19.10;101223.00;;;;2088593;28;20220;-54
2022/01/01 02:10:53;;;;;;;5.77;5.30;;;;;19.10;101220.00;;;;2088413;28;20460;-54
2022/01/01 02:11:53;;;;;;;5.23;4.73;;;;;19.10;101236.00;;;;2079398;28;20206;-54
2022/01/01 02:12:56;;;;;;;6.20;5.60;;;;;19.20;101238.00;;;;2079403;28;20228;-55
2022/01/01 02:18:00;;;;;;;5.90;5.40;;;;;19.20;101232.00;;;;2087690;28;20243;-54
2022/01/01 02:19:00;;;;;;;5.57;5.07;;;;;19.10;101242.00;;;;2088517;28;20201;-54
2022/01/01 02:20:11;;;;;;;5.53;5.10;;;;;19.10;101231.00;;;;2087018;28;20220;-54
2022/01/01 02:21:12;;;;;;;5.47;5.03;;;;;19.10;101227.00;;;;2085040;28;20580;-54
2022/01/01 02:22:12;;;;;;;5.50;5.10;;;;;19.10;101226.00;;;;2087709;28;20684;-54
2022/01/01 02:23:14;;;;;;;6.20;5.30;;;;;19.10;101240.00;;;;2088499;28;20262;-54
2022/01/01 02:24:15;;;;;;;5.35;4.85;;;;;19.10;101236.00;;;;2088408;28;20274;-54
2022/01/01 02:25:16;;;;;;;5.40;4.90;;;;;19.10;101236.00;;;;2088454;28;20212;-54
2022/01/01 02:26:16;;;;;;;6.13;5.63;;;;;19.10;101236.00;;;;2088449;28;20247;-54
2022/01/01 02:27:17;;;;;;;6.00;5.50;;;;;19.10;101237.00;;;;2088341;28;20209;-54
2022/01/01 02:28:17;;;;;;;5.70;5.20;;;;;19.10;101233.00;;;;2088335;28;20692;-54
2022/01/01 02:29:19;;;;;;;5.90;5.40;;;;;19.10;101238.00;;;;2088435;28;20227;-54
2022/01/01 02:30:19;;;;;;;5.80;5.30;;;;;19.10;101236.00;;;;2088276;28;20213;-54
2022/01/01 02:31:19;;;;;;;5.20;4.80;;;;;19.10;101229.00;;;;2088191;28;20287;-54
2022/01/01 02:32:20;;;;;;;6.00;5.50;;;;;19.10;101230.00;;;;2088093;28;20680;-54
2022/01/01 02:33:20;;;;;;;5.50;5.03;;;;;19.10;101224.00;;;;2088530;28;20212;-54
2022/01/01 02:34:20;;;;;;;5.87;5.37;;;;;19.10;101229.00;;;;2088463;28;20223;-54
2022/01/01 02:35:21;;;;;;;5.53;5.03;;;;;19.10;101228.00;;;;2088494;28;20240;-54
2022/01/01 02:36:48;;;;;;;4.97;4.60;;;;;19.10;101220.00;;;;2088390;28;20689;-54
2022/01/01 02:37:48;;;;;;;6.38;5.78;;;;;19.10;101223.00;;;;2087492;28;20861;-54
2022/01/01 02:38:49;;;;;;;5.87;5.27;;;;;19.10;101224.00;;;;2087560;28;20212;-54
2022/01/01 02:39:50;;;;;;;4.93;4.53;;;;;19.10;101224.00;;;;2087879;28;20209;-55
2022/01/01 02:40:50;;;;;;;5.03;4.63;;;;;19.10;101221.00;;;;2087555;28;20244;-54
2022/01/01 02:41:52;;;;;;;5.47;4.97;;;;;19.10;101222.00;;;;2088212;28;20221;-54
2022/01/01 02:42:53;;;;;;;6.05;5.57;;;;;19.10;101207.00;;;;2088288;28;20213;-54
2022/01/01 02:43:54;;;;;;;5.30;4.80;;;;;19.10;101220.00;;;;2088124;28;20216;-54
2022/01/01 02:44:54;;;;;;;5.73;5.27;;;;;19.10;101223.00;;;;2087689;28;20236;-54
2022/01/01 02:45:55;;;;;;;5.23;4.83;;;;;19.10;101222.00;;;;2087700;28;20213;-54
2022/01/01 02:46:55;;;;;;;5.77;5.27;;;;;19.10;101219.00;;;;2087970;28;20282;-55
2022/01/01 02:47:55;;;;;;;4.93;4.53;;;;;19.10;101228.00;;;;2087876;28;20216;-54
2022/01/01 02:48:56;;;;;;;5.30;4.90;;;;;19.10;101229.00;;;;2078298;28;20223;-55
2022/01/01 02:49:56;;;;;;;5.70;5.20;;;;;19.10;101227.00;;;;2091187;28;20217;-54
2022/01/01 02:50:56;;;;;;;5.40;4.97;;;;;19.10;101227.00;;;;2087231;28;20298;-53
2022/01/01 02:51:57;;;;;;;5.10;4.60;;;;;19.10;101224.00;;;;2087732;28;20212;-55
2022/01/01 02:52:57;;;;;;;5.27;4.83;;;;;19.10;101231.00;;;;2078300;28;20263;-55
2022/01/01 02:53:57;;;;;;;5.00;4.60;;;;;19.10;101223.00;;;;2087706;28;20240;-54
2022/01/01 02:54:58;;;;;;;5.80;5.27;;;;;19.10;101232.00;;;;2087919;28;20213;-54
2022/01/01 02:55:58;;;;;;;5.30;4.80;;;;;19.10;101226.00;;;;2077564;28;20216;-55
2022/01/01 02:56:58;;;;;;;5.57;5.07;;;;;19.10;101226.00;;;;2092164;28;20212;-54
2022/01/01 02:58:00;;;;;;;5.50;5.00;;;;;19.10;101225.00;;;;2091632;28;20225;-54
2022/01/01 02:59:00;;;;;;;5.38;4.97;;;;;19.10;101218.00;;;;2087415;28;20235;-54
2022/01/01 03:00:01;;;;;;;5.90;5.40;;;;;19.10;101235.00;;;;2078367;28;20205;-54
2022/01/01 03:01:01;;;;;;;5.10;4.60;;;;;19.10;101242.00;;;;2087396;28;20220;-54
2022/01/01 03:02:02;;;;;;;6.30;5.70;;;;;19.10;101235.00;;;;2087348;28;20664;-54
2022/01/01 03:03:02;;;;;;;6.03;5.53;;;;;19.10;101240.00;;;;2087419;28;20216;-54
2022/01/01 03:04:02;;;;;;;5.73;5.17;;;;;19.10;101243.00;;;;2088315;28;20225;-54
2022/01/01 03:05:03;;;;;;;5.40;5.00;;;;;19.10;101246.00;;;;2088089;28;20574;-54
2022/01/01 03:06:03;;;;;;;5.17;4.77;;;;;19.10;101244.00;;;;2088032;28;20213;-54
2022/01/01 03:07:04;;;;;;;5.70;5.20;;;;;19.10;101247.00;;;;2088048;28;20216;-54
2022/01/01 03:08:04;;;;;;;5.03;4.60;;;;;19.10;101245.00;;;;2088032;28;20212;-54
2022/01/01 03:09:05;;;;;;;5.57;5.07;;;;;19.10;101255.00;;;;2088086;28;20731;-54
2022/01/01 03:10:05;;;;;;;5.50;5.00;;;;;19.10;101249.00;;;;2088020;28;20236;-54
2022/01/01 03:11:07;;;;;;;5.27;4.77;;;;;19.10;101253.00;;;;2087847;28;20296;-53
2022/01/01 03:12:08;;;;;;;5.95;5.45;;;;;19.10;101253.00;;;;2087832;28;20215;-54
2022/01/01 03:13:09;;;;;;;4.85;4.40;;;;;19.10;101245.00;;;;2087998;28;20220;-54
2022/01/01 03:14:10;;;;;;;5.07;4.67;;;;;19.10;101251.00;;;;2088188;28;20572;-54
2022/01/01 03:15:11;;;;;;;5.10;4.60;;;;;19.10;101258.00;;;;2088099;28;20205;-54
2022/01/01 03:16:11;;;;;;;5.30;4.80;;;;;19.10;101254.00;;;;2088014;28;20224;-54
2022/01/01 03:17:11;;;;;;;5.00;4.60;;;;;19.20;101253.00;;;;2088016;28;20205;-54
2022/01/01 03:18:12;;;;;;;5.00;4.60;;;;;19.10;101259.00;;;;2088077;28;20217;-54
2022/01/01 03:19:12;;;;;;;5.30;4.80;;;;;19.10;101253.00;;;;2088129;28;20221;-54
2022/01/01 03:20:12;;;;;;;4.97;4.57;;;;;19.10;101252.00;;;;2088108;28;20228;-54
2022/01/01 03:21:13;;;;;;;5.20;4.70;;;;;19.10;101261.00;;;;2087824;28;20292;-54
2022/01/01 03:22:13;;;;;;;5.60;5.10;;;;;19.10;101250.00;;;;2088083;28;20208;-54
2022/01/01 03:23:14;;;;;;;5.50;5.00;;;;;19.10;101238.00;;;;2087694;28;20217;-53
2022/01/01 03:24:14;;;;;;;5.73;5.13;;;;;19.10;101237.00;;;;2088161;28;20262;-54
2022/01/01 03:25:14;;;;;;;4.50;4.10;;;;;19.10;101254.00;;;;2087995;28;20213;-53
2022/01/01 03:26:15;;;;;;;5.03;4.60;;;;;19.10;101248.00;;;;2088002;28;20209;-54
2022/01/01 03:27:15;;;;;;;5.60;5.10;;;;;19.10;101246.00;;;;2088120;28;20633;-54
2022/01/01 03:28:15;;;;;;;5.13;4.70;;;;;19.10;101242.00;;;;2087970;28;20573;-54
2022/01/01 03:29:16;;;;;;;5.07;4.67;;;;;19.10;101250.00;;;;2088098;28;20231;-54
2022/01/01 03:30:16;;;;;;;5.77;5.27;;;;;19.10;101251.00;;;;2087922;28;20215;-54
2022/01/01 03:31:16;;;;;;;5.37;4.87;;;;;19.10;101235.00;;;;2087983;28;20205;-54
2022/01/01 03:32:17;;;;;;;5.47;4.97;;;;;19.10;101250.00;;;;2087928;28;20641;-54
2022/01/01 03:33:17;;;;;;;5.60;5.10;;;;;19.10;101242.00;;;;2087875;28;20240;-54
2022/01/01 03:34:17;;;;;;;5.70;5.20;;;;;19.10;101249.00;;;;2087973;28;20212;-54
2022/01/01 03:35:18;;;;;;;5.27;4.77;;;;;19.10;101237.00;;;;2085098;28;20336;-54
2022/01/01 03:36:18;;;;;;;5.30;4.90;;;;;19.10;101239.00;;;;2088018;28;20224;-54
2022/01/01 03:37:19;;;;;;;5.40;4.77;;;;;19.10;101229.00;;;;2088005;28;20213;-54
2022/01/01 03:38:19;;;;;;;4.93;4.43;;;;;19.10;101231.00;;;;2087524;28;20208;-54
2022/01/01 03:39:22;;;;;;;4.60;4.20;;;;;19.10;101246.00;;;;2087434;28;20282;-54
2022/01/01 03:40:22;;;;;;;5.20;4.72;;;;;19.10;101237.00;;;;2086585;28;20235;-54
2022/01/01 03:41:22;;;;;;;5.87;5.37;;;;;19.10;101239.00;;;;2086810;28;20216;-53
2022/01/01 03:42:23;;;;;;;5.30;4.80;;;;;19.10;101237.00;;;;2076857;28;20394;-55
2022/01/01 03:43:23;;;;;;;5.07;4.63;;;;;19.10;101243.00;;;;2089490;28;20223;-53
2022/01/01 03:44:23;;;;;;;5.60;5.00;;;;;19.00;101238.00;;;;2088169;28;20214;-54
2022/01/01 03:45:24;;;;;;;5.47;4.97;;;;;19.10;101238.00;;;;2087942;28;20240;-54
2022/01/01 03:46:24;;;;;;;5.47;5.00;;;;;19.10;101239.00;;;;2087942;28;20692;-54
2022/01/01 03:47:24;;;;;;;4.87;4.47;;;;;19.10;101238.00;;;;2086928;28;20222;-54
2022/01/01 03:48:25;;;;;;;4.97;4.57;;;;;19.10;101241.00;;;;2087334;28;20579;-54
2022/01/01 03:49:25;;;;;;;4.80;4.40;;;;;19.10;101245.00;;;;2087456;28;20650;-54
2022/01/01 03:50:25;;;;;;;4.67;4.37;;;;;19.10;101239.00;;;;2085532;28;20220;-54
2022/01/01 03:51:27;;;;;;;4.93;4.43;;;;;19.10;101229.00;;;;2087967;28;20266;-54
2022/01/01 03:52:27;;;;;;;4.85;4.45;;;;;19.10;101232.00;;;;2087776;28;20585;-54
2022/01/01 03:53:27;;;;;;;5.77;5.27;;;;;19.10;101239.00;;;;2087883;28;20213;-54
2022/01/01 03:54:27;;;;;;;5.90;5.40;;;;;19.10;101231.00;;;;2087823;28;20215;-54
2022/01/01 03:55:28;;;;;;;4.70;4.30;;;;;19.10;101228.00;;;;2087145;28;20209;-54
2022/01/01 03:56:28;;;;;;;5.13;4.73;;;;;19.10;101233.00;;;;2087012;28;20282;-54
2022/01/01 03:57:29;;;;;;;5.17;4.73;;;;;19.10;101229.00;;;;2087609;28;20217;-54
2022/01/01 03:58:29;;;;;;;5.50;5.00;;;;;19.10;101228.00;;;;2087488;28;20239;-54
2022/01/01 03:59:29;;;;;;;5.30;4.87;;;;;19.10;101213.00;;;;2087899;28;20213;-54
2022/01/01 04:00:30;;;;;;;5.00;4.60;;;;;19.10;101215.00;;;;2083150;28;20204;-54
2022/01/01 04:01:30;;;;;;;4.83;4.43;;;;;19.10;101216.00;;;;2086828;28;20239;-54
2022/01/01 04:02:31;;;;;;;4.97;4.50;;;;;19.10;101214.00;;;;2087508;28;20221;-54
2022/01/01 04:03:32;;;;;;;5.30;4.80;;;;;19.10;101216.00;;;;2087645;28;20300;-54
2022/01/01 04:04:32;;;;;;;5.10;4.70;;;;;19.10;101208.00;;;;2087621;28;20790;-54
2022/01/01 04:05:35;;;;;;;5.30;4.80;;;;;19.00;101212.00;;;;2086849;28;20225;-54
2022/01/01 04:06:35;;;;;;;4.97;4.57;;;;;19.10;101210.00;;;;2082578;28;20722;-54
2022/01/01 04:07:35;;;;;;;5.13;4.73;;;;;19.10;101206.00;;;;2087788;28;20221;-54
2022/01/01 04:08:36;;;;;;;5.03;4.60;;;;;19.10;101204.00;;;;2086967;28;21538;-57
2022/01/01 04:09:36;;;;;;;5.60;5.10;;;;;19.10;101205.00;;;;2088108;28;20244;-55
2022/01/01 04:10:36;;;;;;;5.47;5.03;;;;;19.10;101205.00;;;;2086252;28;21596;-57
2022/01/01 04:11:37;;;;;;;4.90;4.50;;;;;19.10;101206.00;;;;2087270;28;20217;-55
2022/01/01 04:12:37;;;;;;;5.00;4.60;;;;;19.10;101202.00;;;;2087378;28;20810;-55
2022/01/01 04:13:37;;;;;;;5.13;4.70;;;;;19.10;101205.00;;;;2087371;28;20227;-55
2022/01/01 04:14:38;;;;;;;4.43;4.03;;;;;19.10;101204.00;;;;2086817;28;20221;-55
2022/01/01 04:15:39;;;;;;;4.70;4.30;;;;;19.10;101210.00;;;;2087042;28;20227;-55
2022/01/01 04:16:40;;;;;;;4.88;4.47;;;;;19.10;101208.00;;;;2086924;28;20703;-54
2022/01/01 04:17:40;;;;;;;5.23;4.83;;;;;19.10;101203.00;;;;2087361;28;20217;-54
2022/01/01 04:18:40;;;;;;;5.33;4.83;;;;;19.10;101209.00;;;;2087883;28;20557;-55
2022/01/01 04:19:41;;;;;;;4.90;4.50;;;;;19.10;101206.00;;;;2087813;28;20205;-55
2022/01/01 04:20:45;;;;;;;4.87;4.50;;;;;19.10;101216.00;;;;2087607;28;20220;-54
2022/01/01 04:21:45;;;;;;;5.97;5.03;;;;;19.10;101212.00;;;;2087014;28;20576;-54
2022/01/01 04:22:45;;;;;;;5.50;5.00;;;;;19.10;101208.00;;;;2086295;28;20205;-54
2022/01/01 04:23:45;;;;;;;5.90;5.40;;;;;19.10;101214.00;;;;2087817;28;20228;-54
2022/01/01 04:24:46;;;;;;;5.23;4.83;;;;;19.10;101215.00;;;;2087752;28;20213;-54
2022/01/01 04:25:47;;;;;;;4.90;4.50;;;;;19.10;101210.00;;;;2087524;28;20221;-54
2022/01/01 04:26:48;;;;;;;5.22;4.72;;;;;19.10;101216.00;;;;2087337;28;20225;-54
2022/01/01 04:27:48;;;;;;;4.87;4.47;;;;;19.10;101220.00;;;;2074461;28;20848;-54
2022/01/01 04:28:49;;;;;;;5.57;5.13;;;;;19.10;101215.00;;;;2087502;28;20705;-54
2022/01/01 04:29:49;;;;;;;5.23;4.73;;;;;19.10;101214.00;;;;2078134;28;20573;-54
2022/01/01 04:30:49;;;;;;;4.43;4.03;;;;;19.10;101209.00;;;;2094545;28;20715;-54
2022/01/01 04:31:50;;;;;;;4.97;4.57;;;;;19.10;101207.00;;;;2092911;28;20741;-54
2022/01/01 04:32:50;;;;;;;4.90;4.50;;;;;19.10;101206.00;;;;2084974;28;20217;-54
2022/01/01 04:33:50;;;;;;;4.70;4.30;;;;;19.10;101216.00;;;;2087110;28;20213;-54
2022/01/01 04:34:51;;;;;;;4.50;4.20;;;;;19.10;101217.00;;;;2086793;28;20197;-54
2022/01/01 04:35:51;;;;;;;5.07;4.67;;;;;19.10;101210.00;;;;2086420;28;20240;-54
2022/01/01 04:37:04;;;;;;;4.97;4.43;;;;;19.10;101218.00;;;;2087307;28;20220;-54
2022/01/01 04:38:07;;;;;;;5.60;5.10;;;;;19.10;101211.00;;;;2086238;28;20300;-54
2022/01/01 04:39:08;;;;;;;4.57;4.28;;;;;19.10;101216.00;;;;2088639;28;20208;-54
2022/01/01 04:40:09;;;;;;;5.97;5.47;;;;;19.10;101212.00;;;;2088916;28;20754;-54
2022/01/01 04:41:13;;;;;;;5.10;4.70;;;;;19.10;101208.00;;;;2088542;28;20708;-54
2022/01/01 04:42:13;;;;;;;5.20;4.75;;;;;19.10;101210.00;;;;2088504;28;20335;-55
2022/01/01 04:43:14;;;;;;;5.93;5.17;;;;;19.10;101210.00;;;;2088700;28;20347;-54
2022/01/01 04:44:14;;;;;;;5.43;4.93;;;;;19.10;101206.00;;;;2088544;28;20209;-54
2022/01/01 04:45:14;;;;;;;4.90;4.50;;;;;19.10;101219.00;;;;2088595;28;20255;-54
2022/01/01 04:46:15;;;;;;;5.50;5.00;;;;;19.10;101215.00;;;;2088729;28;20213;-55
2022/01/01 04:47:15;;;;;;;4.87;4.47;;;;;19.10;101211.00;;;;2087430;28;20216;-54
2022/01/01 04:48:15;;;;;;;5.37;4.87;;;;;19.10;101207.00;;;;2088978;28;20213;-55
2022/01/01 04:49:16;;;;;;;5.37;4.87;;;;;19.10;101211.00;;;;2089226;28;20209;-54
2022/01/01 04:50:16;;;;;;;4.83;4.43;;;;;19.10;101212.00;;;;2089057;28;20247;-54
2022/01/01 04:51:16;;;;;;;4.67;4.30;;;;;19.10;101207.00;;;;2089105;28;20219;-55
2022/01/01 04:52:17;;;;;;;5.27;4.50;;;;;19.10;101209.00;;;;2089070;28;20213;-54
2022/01/01 04:53:18;;;;;;;5.13;4.63;;;;;19.10;101208.00;;;;2089062;28;20228;-54
2022/01/01 04:54:19;;;;;;;5.28;4.78;;;;;19.10;101208.00;;;;2085540;28;20346;-54
2022/01/01 04:55:19;;;;;;;5.60;4.80;;;;;19.10;101207.00;;;;2089021;28;20262;-54
2022/01/01 04:56:21;;;;;;;4.80;4.40;;;;;19.10;101207.00;;;;2088877;28;20227;-54
2022/01/01 04:57:26;;;;;;;5.03;4.53;;;;;19.10;101206.00;;;;2089138;28;20269;-54
2022/01/01 04:58:26;;;;;;;4.55;4.15;;;;;19.10;101207.00;;;;2085884;28;20216;-54
2022/01/01 04:59:27;;;;;;;4.37;4.03;;;;;19.10;101214.00;;;;2088704;28;20776;-54
2022/01/01 05:00:27;;;;;;;4.43;4.03;;;;;19.10;101212.00;;;;2080094;28;21018;-54
2022/01/01 05:01:27;;;;;;;5.60;5.10;;;;;19.10;101207.00;;;;2087588;28;20700;-54
2022/01/01 05:02:28;;;;;;;4.50;4.10;;;;;19.10;101214.00;;;;2083569;28;20212;-54
2022/01/01 05:03:28;;;;;;;4.90;4.50;;;;;19.10;101211.00;;;;2095260;28;20248;-54
2022/01/01 05:04:29;;;;;;;5.20;4.80;;;;;19.10;101210.00;;;;2088401;28;20232;-54
2022/01/01 05:05:29;;;;;;;5.00;4.60;;;;;19.10;101212.00;;;;2088738;28;20220;-54